sensor_id;sensor_type;location;lat;lon;timestamp;pressure;altitude;pressure_sealevel;temperature;humidity
63954;BME280;50128;52.094;5.232;2023-04-28T00:01:33;98335.0;;;-7.31;50.56
63954;BME280;50128;52.094;5.232;2023-04-28T00:03:09;98343.0;;;-7.27;50.63
63954;BME280;50128;52.094;5.232;2023-04-28T00:06:21;98338.0;;;-7.22;50.18
63954;BME280;50128;52.094;5.232;2023-04-28T00:07:57;98313.0;;;-7.48;50.53
63954;BME280;50128;52.094;5.232;2023-04-28T00:09:33;98316.0;;;-7.48;50.93
63954;BME280;50128;52.094;5.232;2023-04-28T00:12:46;98306.0;;;-7.53;50.88
63954;BME280;50128;52.094;5.232;2023-04-28T00:14:24;98297.0;;;-7.48;50.9
63954;BME280;50128;52.094;5.232;2023-04-28T00:16:00;98292.0;;;-7.62;51.4
63954;BME280;50128;52.094;5.232;2023-04-28T00:19:12;98278.0;;;-7.74;51.45
63954;BME280;50128;52.094;5.232;2023-04-28T00:20:48;98266.0;;;-7.64;51.08
63954;BME280;50128;52.094;5.232;2023-04-28T00:22:24;98270.0;;;-7.55;51.05
63954;BME280;50128;52.094;5.232;2023-04-28T00:24:00;98272.0;;;-7.59;51.03
63954;BME280;50128;52.094;5.232;2023-04-28T00:27:13;98281.0;;;-7.43;51.12
63954;BME280;50128;52.094;5.232;2023-04-28T00:28:49;98275.0;;;-7.42;51.02
63954;BME280;50128;52.094;5.232;2023-04-28T00:30:25;98288.0;;;-7.43;51.08
63954;BME280;50128;52.094;5.232;2023-04-28T00:33:38;98268.0;;;-7.6;51.55
63954;BME280;50128;52.094;5.232;2023-04-28T00:35:15;98277.0;;;-7.43;51.52
63954;BME280;50128;52.094;5.232;2023-04-28T00:36:51;98267.0;;;-7.59;51.57
63954;BME280;50128;52.094;5.232;2023-04-28T00:40:04;98265.0;;;-7.53;51.5
63954;BME280;50128;52.094;5.232;2023-04-28T00:41:40;98257.0;;;-7.59;51.76
63954;BME280;50128;52.094;5.232;2023-04-28T00:43:16;98245.0;;;-7.77;52.16
63954;BME280;50128;52.094;5.232;2023-04-28T00:46:30;98247.0;;;-7.67;51.92
63954;BME280;50128;52.094;5.232;2023-04-28T00:48:08;98257.0;;;-7.59;52.38
63954;BME280;50128;52.094;5.232;2023-04-28T00:49:45;98269.0;;;-7.57;52.0
63954;BME280;50128;52.094;5.232;2023-04-28T00:51:22;98235.0;;;-7.75;52.18
63954;BME280;50128;52.094;5.232;2023-04-28T00:54:36;98241.0;;;-7.71;51.76
63954;BME280;50128;52.094;5.232;2023-04-28T00:56:12;98241.0;;;-7.69;52.49
63954;BME280;50128;52.094;5.232;2023-04-28T00:57:49;98229.0;;;-7.76;52.54
63954;BME280;50128;52.094;5.232;2023-04-28T01:01:03;98237.0;;;-7.61;52.25
63954;BME280;50128;52.094;5.232;2023-04-28T01:02:40;98231.0;;;-7.66;52.73
63954;BME280;50128;52.094;5.232;2023-04-28T01:04:19;98224.0;;;-7.69;52.4
63954;BME280;50128;52.094;5.232;2023-04-28T01:05:55;98212.0;;;-7.71;52.14
63954;BME280;50128;52.094;5.232;2023-04-28T01:09:08;98221.0;;;-7.67;52.85
63954;BME280;50128;52.094;5.232;2023-04-28T01:10:44;98230.0;;;-7.57;52.5
63954;BME280;50128;52.094;5.232;2023-04-28T01:12:20;98216.0;;;-7.62;52.43
63954;BME280;50128;52.094;5.232;2023-04-28T01:15:34;98216.0;;;-7.71;52.3
63954;BME280;50128;52.094;5.232;2023-04-28T01:17:10;98215.0;;;-7.75;52.28
63954;BME280;50128;52.094;5.232;2023-04-28T01:18:47;98236.0;;;-7.67;52.35
63954;BME280;50128;52.094;5.232;2023-04-28T01:21:59;98241.0;;;-7.55;52.05
63954;BME280;50128;52.094;5.232;2023-04-28T01:23:35;98226.0;;;-7.86;52.4
63954;BME280;50128;52.094;5.232;2023-04-28T01:25:11;98196.0;;;-7.92;52.11
63954;BME280;50128;52.094;5.232;2023-04-28T01:26:47;98209.0;;;-7.78;52.04
63954;BME280;50128;52.094;5.232;2023-04-28T01:30:00;98210.0;;;-7.75;51.94
63954;BME280;50128;52.094;5.232;2023-04-28T01:31:36;98228.0;;;-7.6;51.92
63954;BME280;50128;52.094;5.232;2023-04-28T01:33:12;98205.0;;;-7.76;52.05
63954;BME280;50128;52.094;5.232;2023-04-28T01:36:24;98212.0;;;-7.72;52.25
63954;BME280;50128;52.094;5.232;2023-04-28T01:38:01;98184.0;;;-7.83;52.27
63954;BME280;50128;52.094;5.232;2023-04-28T01:39:37;98190.0;;;-7.69;52.05
63954;BME280;50128;52.094;5.232;2023-04-28T01:42:49;98186.0;;;-7.75;51.88
63954;BME280;50128;52.094;5.232;2023-04-28T01:44:26;98180.0;;;-7.72;51.88
63954;BME280;50128;52.094;5.232;2023-04-28T01:46:02;98161.0;;;-7.87;51.96
63954;BME280;50128;52.094;5.232;2023-04-28T01:49:14;98173.0;;;-7.77;51.91
63954;BME280;50128;52.094;5.232;2023-04-28T01:50:50;98172.0;;;-7.8;51.93
63954;BME280;50128;52.094;5.232;2023-04-28T01:52:26;98173.0;;;-7.84;51.94
63954;BME280;50128;52.094;5.232;2023-04-28T01:54:02;98175.0;;;-7.8;52.57
63954;BME280;50128;52.094;5.232;2023-04-28T01:57:15;98176.0;;;-7.73;52.04
63954;BME280;50128;52.094;5.232;2023-04-28T01:58:51;98175.0;;;-7.82;52.16
63954;BME280;50128;52.094;5.232;2023-04-28T02:00:27;98161.0;;;-7.86;52.19
63954;BME280;50128;52.094;5.232;2023-04-28T02:03:39;98164.0;;;-7.85;52.1
63954;BME280;50128;52.094;5.232;2023-04-28T02:05:15;98166.0;;;-7.85;52.53
63954;BME280;50128;52.094;5.232;2023-04-28T02:06:51;98163.0;;;-7.79;52.67
63954;BME280;50128;52.094;5.232;2023-04-28T02:10:04;98162.0;;;-7.76;52.08
63954;BME280;50128;52.094;5.232;2023-04-28T02:11:41;98158.0;;;-7.8;52.25
63954;BME280;50128;52.094;5.232;2023-04-28T02:13:17;98162.0;;;-7.79;52.24
63954;BME280;50128;52.094;5.232;2023-04-28T02:14:53;98153.0;;;-7.77;52.04
63954;BME280;50128;52.094;5.232;2023-04-28T02:18:05;98174.0;;;-7.65;52.17
63954;BME280;50128;52.094;5.232;2023-04-28T02:19:41;98157.0;;;-7.74;52.15
63954;BME280;50128;52.094;5.232;2023-04-28T02:21:17;98154.0;;;-7.67;52.08
63954;BME280;50128;52.094;5.232;2023-04-28T02:24:30;98151.0;;;-7.66;52.21
63954;BME280;50128;52.094;5.232;2023-04-28T02:26:09;98142.0;;;-7.81;52.5
63954;BME280;50128;52.094;5.232;2023-04-28T02:27:45;98147.0;;;-7.82;52.55
63954;BME280;50128;52.094;5.232;2023-04-28T02:31:05;98140.0;;;-7.8;52.63
63954;BME280;50128;52.094;5.232;2023-04-28T02:32:49;98138.0;;;-7.86;52.57
63954;BME280;50128;52.094;5.232;2023-04-28T02:34:25;98119.0;;;-7.97;52.77
63954;BME280;50128;52.094;5.232;2023-04-28T02:36:03;98135.0;;;-7.83;52.45
63954;BME280;50128;52.094;5.232;2023-04-28T02:39:16;98129.0;;;-7.95;53.28
63954;BME280;50128;52.094;5.232;2023-04-28T02:40:56;98150.0;;;-7.81;53.03
63954;BME280;50128;52.094;5.232;2023-04-28T02:42:33;98143.0;;;-7.83;53.07
63954;BME280;50128;52.094;5.232;2023-04-28T02:44:09;98118.0;;;-7.98;53.2
63954;BME280;50128;52.094;5.232;2023-04-28T02:47:21;98123.0;;;-7.9;53.14
63954;BME280;50128;52.094;5.232;2023-04-28T02:48:57;98108.0;;;-8.01;53.41
63954;BME280;50128;52.094;5.232;2023-04-28T02:50:33;98092.0;;;-8.15;53.63
63954;BME280;50128;52.094;5.232;2023-04-28T02:53:46;98099.0;;;-8.12;53.66
63954;BME280;50128;52.094;5.232;2023-04-28T02:55:22;98089.0;;;-8.16;53.78
63954;BME280;50128;52.094;5.232;2023-04-28T02:56:58;98108.0;;;-8.0;53.93
63954;BME280;50128;52.094;5.232;2023-04-28T03:00:11;98098.0;;;-8.02;53.82
63954;BME280;50128;52.094;5.232;2023-04-28T03:01:48;98109.0;;;-8.01;53.64
63954;BME280;50128;52.094;5.232;2023-04-28T03:03:24;98063.0;;;-8.34;54.12
63954;BME280;50128;52.094;5.232;2023-04-28T03:06:37;98080.0;;;-8.29;54.77
63954;BME280;50128;52.094;5.232;2023-04-28T03:08:13;98094.0;;;-8.06;54.41
63954;BME280;50128;52.094;5.232;2023-04-28T03:09:49;98084.0;;;-8.11;54.14
63954;BME280;50128;52.094;5.232;2023-04-28T03:11:25;98075.0;;;-8.24;54.45
63954;BME280;50128;52.094;5.232;2023-04-28T03:14:37;98071.0;;;-8.11;54.32
63954;BME280;50128;52.094;5.232;2023-04-28T03:16:13;98073.0;;;-8.16;54.78
63954;BME280;50128;52.094;5.232;2023-04-28T03:17:49;98072.0;;;-8.13;54.46
63954;BME280;50128;52.094;5.232;2023-04-28T03:21:02;98061.0;;;-8.1;54.55
63954;BME280;50128;52.094;5.232;2023-04-28T03:22:38;98072.0;;;-8.07;54.27
63954;BME280;50128;52.094;5.232;2023-04-28T03:24:14;98094.0;;;-7.85;54.31
63954;BME280;50128;52.094;5.232;2023-04-28T03:27:26;98074.0;;;-7.9;54.29
63954;BME280;50128;52.094;5.232;2023-04-28T03:29:02;98071.0;;;-7.88;53.84
63954;BME280;50128;52.094;5.232;2023-04-28T03:30:38;98067.0;;;-8.01;54.23
63954;BME280;50128;52.094;5.232;2023-04-28T03:33:51;98080.0;;;-8.09;54.65
63954;BME280;50128;52.094;5.232;2023-04-28T03:35:27;98071.0;;;-8.02;54.56
63954;BME280;50128;52.094;5.232;2023-04-28T03:37:03;98065.0;;;-7.99;54.39
63954;BME280;50128;52.094;5.232;2023-04-28T03:38:39;98061.0;;;-8.02;54.5
63954;BME280;50128;52.094;5.232;2023-04-28T03:41:51;98059.0;;;-8.07;54.82
63954;BME280;50128;52.094;5.232;2023-04-28T03:43:27;98061.0;;;-8.05;54.8
63954;BME280;50128;52.094;5.232;2023-04-28T03:45:04;98055.0;;;-8.08;54.81
63954;BME280;50128;52.094;5.232;2023-04-28T03:48:17;98045.0;;;-8.07;54.79
63954;BME280;50128;52.094;5.232;2023-04-28T03:49:53;98051.0;;;-8.06;54.87
63954;BME280;50128;52.094;5.232;2023-04-28T03:51:29;98038.0;;;-8.15;55.19
63954;BME280;50128;52.094;5.232;2023-04-28T03:54:41;98033.0;;;-8.27;55.37
63954;BME280;50128;52.094;5.232;2023-04-28T03:56:17;98053.0;;;-8.08;55.27
63954;BME280;50128;52.094;5.232;2023-04-28T03:57:53;98042.0;;;-8.17;55.33
63954;BME280;50128;52.094;5.232;2023-04-28T03:59:31;98029.0;;;-8.14;55.44
63954;BME280;50128;52.094;5.232;2023-04-28T04:02:43;98025.0;;;-8.1;55.37
63954;BME280;50128;52.094;5.232;2023-04-28T04:04:19;98013.0;;;-8.22;55.47
63954;BME280;50128;52.094;5.232;2023-04-28T04:05:55;98034.0;;;-8.09;55.73
63954;BME280;50128;52.094;5.232;2023-04-28T04:09:07;98016.0;;;-8.09;55.49
63954;BME280;50128;52.094;5.232;2023-04-28T04:10:43;97991.0;;;-8.24;55.52
63954;BME280;50128;52.094;5.232;2023-04-28T04:12:20;98007.0;;;-8.15;55.84
63954;BME280;50128;52.094;5.232;2023-04-28T04:15:32;98031.0;;;-8.0;55.69
63954;BME280;50128;52.094;5.232;2023-04-28T04:17:08;98023.0;;;-8.1;55.73
63954;BME280;50128;52.094;5.232;2023-04-28T04:18:44;98033.0;;;-8.02;55.75
63954;BME280;50128;52.094;5.232;2023-04-28T04:21:57;98015.0;;;-8.18;55.81
63954;BME280;50128;52.094;5.232;2023-04-28T04:23:33;98023.0;;;-8.1;55.77
63954;BME280;50128;52.094;5.232;2023-04-28T04:25:09;98014.0;;;-8.11;56.04
63954;BME280;50128;52.094;5.232;2023-04-28T04:26:46;98007.0;;;-8.04;55.73
63954;BME280;50128;52.094;5.232;2023-04-28T04:29:58;98001.0;;;-8.05;55.83
63954;BME280;50128;52.094;5.232;2023-04-28T04:31:34;97999.0;;;-8.15;56.41
63954;BME280;50128;52.094;5.232;2023-04-28T04:33:10;98021.0;;;-8.02;56.48
63954;BME280;50128;52.094;5.232;2023-04-28T04:36:22;98001.0;;;-8.05;56.41
63954;BME280;50128;52.094;5.232;2023-04-28T04:37:59;97981.0;;;-8.09;56.47
63954;BME280;50128;52.094;5.232;2023-04-28T04:39:35;98001.0;;;-7.96;56.49
63954;BME280;50128;52.094;5.232;2023-04-28T04:42:47;98017.0;;;-7.87;56.69
63954;BME280;50128;52.094;5.232;2023-04-28T04:44:23;97983.0;;;-7.95;56.62
63954;BME280;50128;52.094;5.232;2023-04-28T04:45:59;97998.0;;;-7.93;56.99
63954;BME280;50128;52.094;5.232;2023-04-28T04:47:35;97973.0;;;-8.04;57.11
63954;BME280;50128;52.094;5.232;2023-04-28T04:50:47;97977.0;;;-8.02;57.3
63954;BME280;50128;52.094;5.232;2023-04-28T04:52:24;97970.0;;;-7.9;57.02
63954;BME280;50128;52.094;5.232;2023-04-28T04:54:00;97972.0;;;-7.94;57.44
63954;BME280;50128;52.094;5.232;2023-04-28T04:57:12;97962.0;;;-7.96;57.52
63954;BME280;50128;52.094;5.232;2023-04-28T04:58:49;97962.0;;;-7.89;57.56
63954;BME280;50128;52.094;5.232;2023-04-28T05:00:27;97955.0;;;-7.96;57.66
63954;BME280;50128;52.094;5.232;2023-04-28T05:03:40;97984.0;;;-7.75;57.73
63954;BME280;50128;52.094;5.232;2023-04-28T05:05:16;97970.0;;;-7.95;58.22
63954;BME280;50128;52.094;5.232;2023-04-28T05:06:52;97971.0;;;-7.82;58.03
63954;BME280;50128;52.094;5.232;2023-04-28T05:10:05;97962.0;;;-7.88;58.41
63954;BME280;50128;52.094;5.232;2023-04-28T05:11:41;97955.0;;;-7.94;59.06
63954;BME280;50128;52.094;5.232;2023-04-28T05:13:17;97967.0;;;-7.79;59.34
63954;BME280;50128;52.094;5.232;2023-04-28T05:14:53;97960.0;;;-7.87;59.67
63954;BME280;50128;52.094;5.232;2023-04-28T05:18:06;97987.0;;;-7.72;60.21
63954;BME280;50128;52.094;5.232;2023-04-28T05:19:42;97962.0;;;-7.83;61.29
63954;BME280;50128;52.094;5.232;2023-04-28T05:21:18;97963.0;;;-7.97;62.45
63954;BME280;50128;52.094;5.232;2023-04-28T05:24:30;97965.0;;;-7.92;63.73
63954;BME280;50128;52.094;5.232;2023-04-28T05:26:06;97992.0;;;-7.74;62.75
63954;BME280;50128;52.094;5.232;2023-04-28T05:27:42;97989.0;;;-7.79;64.22
63954;BME280;50128;52.094;5.232;2023-04-28T05:30:55;97971.0;;;-7.99;64.33
63954;BME280;50128;52.094;5.232;2023-04-28T05:32:31;97979.0;;;-7.8;64.42
63954;BME280;50128;52.094;5.232;2023-04-28T05:34:09;97972.0;;;-7.76;64.8
63954;BME280;50128;52.094;5.232;2023-04-28T05:35:45;97968.0;;;-7.78;65.72
63954;BME280;50128;52.094;5.232;2023-04-28T05:38:58;97971.0;;;-7.81;66.92
63954;BME280;50128;52.094;5.232;2023-04-28T05:40:34;97959.0;;;-7.84;67.89
63954;BME280;50128;52.094;5.232;2023-04-28T05:42:11;97978.0;;;-7.77;69.08
63954;BME280;50128;52.094;5.232;2023-04-28T05:45:23;97958.0;;;-7.94;70.11
63954;BME280;50128;52.094;5.232;2023-04-28T05:47:00;97988.0;;;-7.68;70.88
63954;BME280;50128;52.094;5.232;2023-04-28T05:48:36;97999.0;;;-7.74;72.7
63954;BME280;50128;52.094;5.232;2023-04-28T05:51:49;97995.0;;;-7.83;72.39
63954;BME280;50128;52.094;5.232;2023-04-28T05:53:25;97965.0;;;-7.94;73.24
63954;BME280;50128;52.094;5.232;2023-04-28T06:28:42;97903.0;;;-7.84;83.85
63954;BME280;50128;52.094;5.232;2023-04-28T06:30:21;97916.0;;;-7.69;85.19
63954;BME280;50128;52.094;5.232;2023-04-28T06:33:34;97914.0;;;-7.79;86.93
63954;BME280;50128;52.094;5.232;2023-04-28T06:35:10;97901.0;;;-7.75;87.92
63954;BME280;50128;52.094;5.232;2023-04-28T06:36:46;97930.0;;;-7.62;89.65
63954;BME280;50128;52.094;5.232;2023-04-28T06:39:58;97903.0;;;-7.64;89.89
63954;BME280;50128;52.094;5.232;2023-04-28T06:41:34;97927.0;;;-7.47;89.95
63954;BME280;50128;52.094;5.232;2023-04-28T06:43:10;97923.0;;;-7.45;90.39
63954;BME280;50128;52.094;5.232;2023-04-28T06:44:46;97912.0;;;-7.57;90.62
63954;BME280;50128;52.094;5.232;2023-04-28T06:47:59;97925.0;;;-7.49;91.74
63954;BME280;50128;52.094;5.232;2023-04-28T06:49:35;97917.0;;;-7.59;92.39
63954;BME280;50128;52.094;5.232;2023-04-28T06:51:10;97920.0;;;-7.48;92.77
63954;BME280;50128;52.094;5.232;2023-04-28T06:54:22;97904.0;;;-7.44;92.67
63954;BME280;50128;52.094;5.232;2023-04-28T06:55:58;97916.0;;;-7.27;92.93
63954;BME280;50128;52.094;5.232;2023-04-28T06:57:36;97918.0;;;-7.18;92.55
63954;BME280;50128;52.094;5.232;2023-04-28T07:00:48;97916.0;;;-7.16;92.77
63954;BME280;50128;52.094;5.232;2023-04-28T07:02:24;97905.0;;;-7.13;93.24
63954;BME280;50128;52.094;5.232;2023-04-28T07:04:00;97902.0;;;-7.09;93.79
63954;BME280;50128;52.094;5.232;2023-04-28T07:07:12;97906.0;;;-7.09;94.01
63954;BME280;50128;52.094;5.232;2023-04-28T07:08:48;97902.0;;;-6.89;92.81
63954;BME280;50128;52.094;5.232;2023-04-28T07:10:24;97898.0;;;-6.87;92.63
63954;BME280;50128;52.094;5.232;2023-04-28T07:12:01;97894.0;;;-6.72;92.04
63954;BME280;50128;52.094;5.232;2023-04-28T07:15:14;97920.0;;;-6.58;91.59
63954;BME280;50128;52.094;5.232;2023-04-28T07:16:50;97888.0;;;-6.83;91.31
63954;BME280;50128;52.094;5.232;2023-04-28T07:18:26;97911.0;;;-6.7;91.73
63954;BME280;50128;52.094;5.232;2023-04-28T07:21:39;97898.0;;;-6.55;90.97
63954;BME280;50128;52.094;5.232;2023-04-28T07:23:16;97937.0;;;-6.32;90.72
63954;BME280;50128;52.094;5.232;2023-04-28T07:24:52;97909.0;;;-6.58;91.04
63954;BME280;50128;52.094;5.232;2023-04-28T07:28:05;97904.0;;;-6.54;90.86
63954;BME280;50128;52.094;5.232;2023-04-28T07:29:42;97919.0;;;-6.34;90.55
63954;BME280;50128;52.094;5.232;2023-04-28T07:31:18;97889.0;;;-6.54;90.59
63954;BME280;50128;52.094;5.232;2023-04-28T07:32:54;97891.0;;;-6.37;91.01
63954;BME280;50128;52.094;5.232;2023-04-28T07:36:07;97898.0;;;-6.35;91.61
63954;BME280;50128;52.094;5.232;2023-04-28T07:37:43;97901.0;;;-6.22;92.31
63954;BME280;50128;52.094;5.232;2023-04-28T07:39:19;97885.0;;;-6.24;91.08
63954;BME280;50128;52.094;5.232;2023-04-28T07:42:31;97906.0;;;-6.21;90.93
63954;BME280;50128;52.094;5.232;2023-04-28T07:44:07;97900.0;;;-6.22;91.17
63954;BME280;50128;52.094;5.232;2023-04-28T07:45:43;97898.0;;;-6.12;91.31
63954;BME280;50128;52.094;5.232;2023-04-28T07:48:55;97873.0;;;-6.25;91.83
63954;BME280;50128;52.094;5.232;2023-04-28T07:50:32;97888.0;;;-6.05;91.58
63954;BME280;50128;52.094;5.232;2023-04-28T07:52:09;97895.0;;;-5.92;91.58
63954;BME280;50128;52.094;5.232;2023-04-28T07:53:45;97889.0;;;-5.97;92.03
63954;BME280;50128;52.094;5.232;2023-04-28T07:56:57;97897.0;;;-5.83;91.3
63954;BME280;50128;52.094;5.232;2023-04-28T07:58:33;97882.0;;;-5.87;91.78
63954;BME280;50128;52.094;5.232;2023-04-28T08:00:10;97921.0;;;-5.57;90.82
63954;BME280;50128;52.094;5.232;2023-04-28T08:03:22;97913.0;;;-5.54;91.19
63954;BME280;50128;52.094;5.232;2023-04-28T08:04:59;97911.0;;;-5.58;91.81
63954;BME280;50128;52.094;5.232;2023-04-28T08:06:35;97879.0;;;-5.73;92.82
63954;BME280;50128;52.094;5.232;2023-04-28T08:09:47;97887.0;;;-5.75;95.52
63954;BME280;50128;52.094;5.232;2023-04-28T08:11:24;97897.0;;;-5.72;95.15
63954;BME280;50128;52.094;5.232;2023-04-28T08:13:00;97880.0;;;-5.79;95.24
63954;BME280;50128;52.094;5.232;2023-04-28T08:16:13;97892.0;;;-5.74;95.33
63954;BME280;50128;52.094;5.232;2023-04-28T08:17:49;97893.0;;;-5.9;97.05
63954;BME280;50128;52.094;5.232;2023-04-28T08:19:26;97872.0;;;-5.94;97.79
63954;BME280;50128;52.094;5.232;2023-04-28T08:21:02;97905.0;;;-5.68;99.54
63954;BME280;50128;52.094;5.232;2023-04-28T08:24:14;97893.0;;;-5.73;100.0
63954;BME280;50128;52.094;5.232;2023-04-28T08:25:50;97894.0;;;-5.72;100.0
63954;BME280;50128;52.094;5.232;2023-04-28T08:27:27;97885.0;;;-5.76;100.0
63954;BME280;50128;52.094;5.232;2023-04-28T08:30:39;97884.0;;;-5.64;100.0
63954;BME280;50128;52.094;5.232;2023-04-28T08:32:15;97879.0;;;-5.61;100.0
63954;BME280;50128;52.094;5.232;2023-04-28T08:33:51;97872.0;;;-5.68;100.0
63954;BME280;50128;52.094;5.232;2023-04-28T08:37:05;97876.0;;;-5.55;100.0
63954;BME280;50128;52.094;5.232;2023-04-28T08:38:41;97870.0;;;-5.44;100.0
63954;BME280;50128;52.094;5.232;2023-04-28T08:40:18;97879.0;;;-5.29;100.0
63954;BME280;50128;52.094;5.232;2023-04-28T08:41:55;97881.0;;;-5.23;100.0
63954;BME280;50128;52.094;5.232;2023-04-28T08:45:12;97870.0;;;-5.33;100.0
63954;BME280;50128;52.094;5.232;2023-04-28T08:46:48;97891.0;;;-5.09;100.0
63954;BME280;50128;52.094;5.232;2023-04-28T08:48:30;97875.0;;;-5.23;100.0
63954;BME280;50128;52.094;5.232;2023-04-28T08:50:14;97891.0;;;-5.26;100.0
63954;BME280;50128;52.094;5.232;2023-04-28T08:53:37;97874.0;;;-5.32;100.0
63954;BME280;50128;52.094;5.232;2023-04-28T08:55:14;97872.0;;;-5.43;100.0
63954;BME280;50128;52.094;5.232;2023-04-28T08:56:51;97914.0;;;-5.09;100.0
63954;BME280;50128;52.094;5.232;2023-04-28T09:00:04;97895.0;;;-5.27;100.0
63954;BME280;50128;52.094;5.232;2023-04-28T09:01:40;97893.0;;;-5.13;100.0
63954;BME280;50128;52.094;5.232;2023-04-28T09:03:16;97882.0;;;-5.21;100.0
63954;BME280;50128;52.094;5.232;2023-04-28T09:04:52;97885.0;;;-5.3;100.0
63954;BME280;50128;52.094;5.232;2023-04-28T09:08:08;97871.0;;;-5.35;100.0
63954;BME280;50128;52.094;5.232;2023-04-28T09:09:44;97879.0;;;-5.19;100.0
63954;BME280;50128;52.094;5.232;2023-04-28T09:11:20;97883.0;;;-5.18;100.0
63954;BME280;50128;52.094;5.232;2023-04-28T09:14:34;97864.0;;;-5.13;100.0
63954;BME280;50128;52.094;5.232;2023-04-28T09:16:11;97870.0;;;-5.07;100.0
63954;BME280;50128;52.094;5.232;2023-04-28T09:17:48;97884.0;;;-4.98;100.0
63954;BME280;50128;52.094;5.232;2023-04-28T09:21:08;97868.0;;;-5.02;100.0
63954;BME280;50128;52.094;5.232;2023-04-28T09:22:45;97873.0;;;-5.03;100.0
63954;BME280;50128;52.094;5.232;2023-04-28T09:24:29;97872.0;;;-5.09;100.0
63954;BME280;50128;52.094;5.232;2023-04-28T09:26:06;97879.0;;;-5.04;100.0
63954;BME280;50128;52.094;5.232;2023-04-28T09:29:19;97891.0;;;-4.78;100.0
63954;BME280;50128;52.094;5.232;2023-04-28T09:30:55;97891.0;;;-4.82;100.0
63954;BME280;50128;52.094;5.232;2023-04-28T09:32:31;97877.0;;;-5.12;100.0
63954;BME280;50128;52.094;5.232;2023-04-28T09:35:44;97881.0;;;-5.03;100.0
63954;BME280;50128;52.094;5.232;2023-04-28T09:37:22;97872.0;;;-4.92;100.0
63954;BME280;50128;52.094;5.232;2023-04-28T09:38:59;97927.0;;;-4.63;100.0
63954;BME280;50128;52.094;5.232;2023-04-28T09:40:48;97919.0;;;-4.45;100.0
63954;BME280;50128;52.094;5.232;2023-04-28T09:44:09;97914.0;;;-4.63;100.0
63954;BME280;50128;52.094;5.232;2023-04-28T09:45:46;97911.0;;;-4.53;100.0
63954;BME280;50128;52.094;5.232;2023-04-28T09:47:22;97919.0;;;-4.37;100.0
63954;BME280;50128;52.094;5.232;2023-04-28T09:49:00;97923.0;;;-4.35;100.0
63954;BME280;50128;52.094;5.232;2023-04-28T09:52:15;97916.0;;;-4.55;100.0
63954;BME280;50128;52.094;5.232;2023-04-28T09:53:51;97924.0;;;-4.38;100.0
63954;BME280;50128;52.094;5.232;2023-04-28T09:55:29;97915.0;;;-4.36;100.0
63954;BME280;50128;52.094;5.232;2023-04-28T09:58:46;97922.0;;;-4.37;100.0
63954;BME280;50128;52.094;5.232;2023-04-28T10:00:26;97906.0;;;-4.4;100.0
63954;BME280;50128;52.094;5.232;2023-04-28T10:02:04;97919.0;;;-4.22;100.0
63954;BME280;50128;52.094;5.232;2023-04-28T10:03:40;97903.0;;;-4.38;100.0
63954;BME280;50128;52.094;5.232;2023-04-28T10:06:55;97918.0;;;-4.34;100.0
63954;BME280;50128;52.094;5.232;2023-04-28T10:08:32;97899.0;;;-4.32;100.0
63954;BME280;50128;52.094;5.232;2023-04-28T10:10:10;97903.0;;;-4.21;100.0
63954;BME280;50128;52.094;5.232;2023-04-28T10:13:23;97904.0;;;-4.34;100.0
63954;BME280;50128;52.094;5.232;2023-04-28T10:15:00;97919.0;;;-4.29;100.0
63954;BME280;50128;52.094;5.232;2023-04-28T10:16:37;97906.0;;;-4.38;100.0
63954;BME280;50128;52.094;5.232;2023-04-28T10:18:14;97922.0;;;-4.29;100.0
63954;BME280;50128;52.094;5.232;2023-04-28T10:21:31;97915.0;;;-4.35;100.0
63954;BME280;50128;52.094;5.232;2023-04-28T10:24:17;97914.0;;;-4.4;100.0
63954;BME280;50128;52.094;5.232;2023-04-28T10:26:02;97911.0;;;-4.38;100.0
63954;BME280;50128;52.094;5.232;2023-04-28T10:27:46;97910.0;;;-4.29;100.0
63954;BME280;50128;52.094;5.232;2023-04-28T10:29:24;97937.0;;;-4.09;100.0
63954;BME280;50128;52.094;5.232;2023-04-28T10:31:08;97932.0;;;-4.23;100.0
63954;BME280;50128;52.094;5.232;2023-04-28T10:32:45;97920.0;;;-4.29;100.0
63954;BME280;50128;52.094;5.232;2023-04-28T10:35:59;97920.0;;;-4.41;100.0
63954;BME280;50128;52.094;5.232;2023-04-28T10:38:09;97917.0;;;-4.31;100.0
63954;BME280;50128;52.094;5.232;2023-04-28T10:40:50;97928.0;;;-4.24;100.0
63954;BME280;50128;52.094;5.232;2023-04-28T10:42:58;97904.0;;;-4.45;100.0
63954;BME280;50128;52.094;5.232;2023-04-28T10:44:41;97912.0;;;-4.32;100.0
63954;BME280;50128;52.094;5.232;2023-04-28T10:46:17;97932.0;;;-4.17;100.0
63954;BME280;50128;52.094;5.232;2023-04-28T10:48:00;97911.0;;;-4.34;100.0
63954;BME280;50128;52.094;5.232;2023-04-28T10:50:09;97915.0;;;-4.29;100.0
63954;BME280;50128;52.094;5.232;2023-04-28T10:51:46;97920.0;;;-4.18;100.0
63954;BME280;50128;52.094;5.232;2023-04-28T10:55:42;97924.0;;;-4.09;100.0
63954;BME280;50128;52.094;5.232;2023-04-28T10:57:20;97901.0;;;-4.3;100.0
63954;BME280;50128;52.094;5.232;2023-04-28T10:58:56;97920.0;;;-4.22;100.0
63954;BME280;50128;52.094;5.232;2023-04-28T11:00:33;97898.0;;;-4.23;100.0
63954;BME280;50128;52.094;5.232;2023-04-28T11:02:41;97908.0;;;-4.09;100.0
63954;BME280;50128;52.094;5.232;2023-04-28T11:04:17;97916.0;;;-4.28;100.0
63954;BME280;50128;52.094;5.232;2023-04-28T11:08:33;97924.0;;;-4.17;100.0
63954;BME280;50128;52.094;5.232;2023-04-28T11:10:09;97911.0;;;-4.21;100.0
63954;BME280;50128;52.094;5.232;2023-04-28T11:12:03;97911.0;;;-4.11;100.0
63954;BME280;50128;52.094;5.232;2023-04-28T11:13:40;97901.0;;;-4.13;100.0
63954;BME280;50128;52.094;5.232;2023-04-28T11:15:17;97904.0;;;-4.01;100.0
63954;BME280;50128;52.094;5.232;2023-04-28T11:16:54;97897.0;;;-3.87;100.0
63954;BME280;50128;52.094;5.232;2023-04-28T11:20:24;97888.0;;;-3.9;100.0
63954;BME280;50128;52.094;5.232;2023-04-28T11:22:03;97884.0;;;-3.91;100.0
63954;BME280;50128;52.094;5.232;2023-04-28T11:23:50;97879.0;;;-3.94;100.0
63954;BME280;50128;52.094;5.232;2023-04-28T11:25:27;97890.0;;;-3.82;100.0
63954;BME280;50128;52.094;5.232;2023-04-28T11:28:50;97882.0;;;-3.9;100.0
63954;BME280;50128;52.094;5.232;2023-04-28T11:30:26;97896.0;;;-3.84;100.0
63954;BME280;50128;52.094;5.232;2023-04-28T11:32:02;97900.0;;;-3.86;100.0
63954;BME280;50128;52.094;5.232;2023-04-28T11:33:40;97884.0;;;-3.87;100.0
63954;BME280;50128;52.094;5.232;2023-04-28T11:36:54;97903.0;;;-3.58;100.0
63954;BME280;50128;52.094;5.232;2023-04-28T11:38:42;97899.0;;;-3.63;100.0
63954;BME280;50128;52.094;5.232;2023-04-28T11:40:18;97893.0;;;-3.69;100.0
63954;BME280;50128;52.094;5.232;2023-04-28T11:41:55;97897.0;;;-3.8;100.0
63954;BME280;50128;52.094;5.232;2023-04-28T11:45:11;97896.0;;;-3.7;100.0
63954;BME280;50128;52.094;5.232;2023-04-28T11:46:49;97897.0;;;-3.67;100.0
63954;BME280;50128;52.094;5.232;2023-04-28T11:48:26;97903.0;;;-3.61;100.0